sensor_id;sensor_type;location;lat;lon;timestamp;P1;durP1;ratioP1;P2;durP2;ratioP2
70985;SDS011;58645;43.068;25.610;2023-12-20T00:01:21;19.02;;;11.48;;
70985;SDS011;58645;43.068;25.610;2023-12-20T00:03:47;20.75;;;12.13;;
70985;SDS011;58645;43.068;25.610;2023-12-20T00:06:13;18.52;;;11.63;;
70985;SDS011;58645;43.068;25.610;2023-12-20T00:08:39;18.90;;;10.85;;
70985;SDS011;58645;43.068;25.610;2023-12-20T00:11:04;17.00;;;9.85;;
70985;SDS011;58645;43.068;25.610;2023-12-20T00:13:30;16.30;;;10.60;;
70985;SDS011;58645;43.068;25.610;2023-12-20T00:15:56;18.23;;;9.98;;
70985;SDS011;58645;43.068;25.610;2023-12-20T00:18:23;17.98;;;10.23;;
70985;SDS011;58645;43.068;25.610;2023-12-20T00:20:48;17.35;;;8.90;;
70985;SDS011;58645;43.068;25.610;2023-12-20T00:23:14;19.80;;;11.65;;
70985;SDS011;58645;43.068;25.610;2023-12-20T00:25:40;17.70;;;11.45;;
70985;SDS011;58645;43.068;25.610;2023-12-20T00:28:06;23.05;;;11.80;;
70985;SDS011;58645;43.068;25.610;2023-12-20T00:30:31;19.42;;;11.20;;
70985;SDS011;58645;43.068;25.610;2023-12-20T00:32:57;21.15;;;12.38;;
70985;SDS011;58645;43.068;25.610;2023-12-20T00:35:23;19.38;;;11.52;;
70985;SDS011;58645;43.068;25.610;2023-12-20T00:37:49;25.73;;;12.13;;
70985;SDS011;58645;43.068;25.610;2023-12-20T00:40:14;22.90;;;13.35;;
70985;SDS011;58645;43.068;25.610;2023-12-20T00:42:41;28.70;;;14.77;;
70985;SDS011;58645;43.068;25.610;2023-12-20T00:45:07;27.02;;;15.70;;
70985;SDS011;58645;43.068;25.610;2023-12-20T00:47:33;37.35;;;18.55;;
70985;SDS011;58645;43.068;25.610;2023-12-20T00:49:58;46.92;;;23.48;;
70985;SDS011;58645;43.068;25.610;2023-12-20T00:52:24;41.97;;;22.10;;
70985;SDS011;58645;43.068;25.610;2023-12-20T00:54:50;53.40;;;25.80;;
70985;SDS011;58645;43.068;25.610;2023-12-20T00:57:16;57.72;;;27.08;;
70985;SDS011;58645;43.068;25.610;2023-12-20T00:59:42;50.38;;;24.55;;
70985;SDS011;58645;43.068;25.610;2023-12-20T01:02:08;45.08;;;22.23;;
70985;SDS011;58645;43.068;25.610;2023-12-20T01:04:35;46.03;;;23.48;;
70985;SDS011;58645;43.068;25.610;2023-12-20T01:07:01;46.63;;;24.88;;
70985;SDS011;58645;43.068;25.610;2023-12-20T01:09:27;49.45;;;22.25;;
70985;SDS011;58645;43.068;25.610;2023-12-20T01:11:53;46.60;;;24.88;;
70985;SDS011;58645;43.068;25.610;2023-12-20T01:14:19;47.45;;;22.75;;
70985;SDS011;58645;43.068;25.610;2023-12-20T01:16:44;48.15;;;23.75;;
70985;SDS011;58645;43.068;25.610;2023-12-20T01:19:10;49.83;;;23.27;;
70985;SDS011;58645;43.068;25.610;2023-12-20T01:21:36;49.72;;;23.63;;
70985;SDS011;58645;43.068;25.610;2023-12-20T01:24:02;58.67;;;24.67;;
70985;SDS011;58645;43.068;25.610;2023-12-20T01:26:28;46.08;;;23.77;;
70985;SDS011;58645;43.068;25.610;2023-12-20T01:28:54;41.03;;;19.08;;
70985;SDS011;58645;43.068;25.610;2023-12-20T01:31:20;34.72;;;16.38;;
70985;SDS011;58645;43.068;25.610;2023-12-20T01:33:45;33.78;;;17.33;;
70985;SDS011;58645;43.068;25.610;2023-12-20T01:36:11;39.05;;;21.95;;
70985;SDS011;58645;43.068;25.610;2023-12-20T01:38:37;50.17;;;29.90;;
70985;SDS011;58645;43.068;25.610;2023-12-20T01:41:03;37.05;;;20.70;;
70985;SDS011;58645;43.068;25.610;2023-12-20T01:43:29;34.17;;;19.40;;
70985;SDS011;58645;43.068;25.610;2023-12-20T01:45:56;38.08;;;26.08;;
70985;SDS011;58645;43.068;25.610;2023-12-20T01:48:23;30.40;;;19.52;;
70985;SDS011;58645;43.068;25.610;2023-12-20T01:50:49;32.97;;;21.27;;
70985;SDS011;58645;43.068;25.610;2023-12-20T01:53:16;34.53;;;20.55;;
70985;SDS011;58645;43.068;25.610;2023-12-20T01:55:43;31.65;;;18.77;;
70985;SDS011;58645;43.068;25.610;2023-12-20T01:58:10;26.27;;;16.00;;
70985;SDS011;58645;43.068;25.610;2023-12-20T02:00:37;28.95;;;18.75;;
70985;SDS011;58645;43.068;25.610;2023-12-20T02:03:03;42.58;;;26.92;;
70985;SDS011;58645;43.068;25.610;2023-12-20T02:05:30;31.42;;;19.52;;
70985;SDS011;58645;43.068;25.610;2023-12-20T02:07:56;34.13;;;22.98;;
70985;SDS011;58645;43.068;25.610;2023-12-20T02:10:22;35.90;;;19.45;;
70985;SDS011;58645;43.068;25.610;2023-12-20T02:12:49;37.30;;;21.30;;
70985;SDS011;58645;43.068;25.610;2023-12-20T02:15:15;15.27;;;10.13;;
70985;SDS011;58645;43.068;25.610;2023-12-20T02:17:40;17.75;;;10.02;;
70985;SDS011;58645;43.068;25.610;2023-12-20T02:20:06;17.45;;;9.68;;
70985;SDS011;58645;43.068;25.610;2023-12-20T02:22:32;16.70;;;9.07;;
70985;SDS011;58645;43.068;25.610;2023-12-20T02:24:58;13.52;;;8.52;;
70985;SDS011;58645;43.068;25.610;2023-12-20T02:27:24;15.60;;;9.05;;
70985;SDS011;58645;43.068;25.610;2023-12-20T02:29:50;15.93;;;7.82;;
70985;SDS011;58645;43.068;25.610;2023-12-20T02:32:16;14.90;;;9.00;;
70985;SDS011;58645;43.068;25.610;2023-12-20T02:37:09;18.30;;;9.77;;
70985;SDS011;58645;43.068;25.610;2023-12-20T02:39:34;19.75;;;9.43;;
70985;SDS011;58645;43.068;25.610;2023-12-20T02:42:00;16.42;;;9.30;;
70985;SDS011;58645;43.068;25.610;2023-12-20T02:44:26;14.15;;;8.05;;
70985;SDS011;58645;43.068;25.610;2023-12-20T02:46:52;16.65;;;8.52;;
70985;SDS011;58645;43.068;25.610;2023-12-20T02:49:17;14.80;;;8.82;;
70985;SDS011;58645;43.068;25.610;2023-12-20T02:51:43;14.27;;;8.98;;
70985;SDS011;58645;43.068;25.610;2023-12-20T02:54:09;17.38;;;8.82;;
70985;SDS011;58645;43.068;25.610;2023-12-20T02:56:35;15.55;;;9.02;;
70985;SDS011;58645;43.068;25.610;2023-12-20T02:59:00;15.98;;;9.32;;
70985;SDS011;58645;43.068;25.610;2023-12-20T03:01:27;16.40;;;9.95;;
70985;SDS011;58645;43.068;25.610;2023-12-20T03:03:54;16.27;;;9.82;;
70985;SDS011;58645;43.068;25.610;2023-12-20T03:06:20;14.45;;;8.70;;
70985;SDS011;58645;43.068;25.610;2023-12-20T03:08:46;13.73;;;8.75;;
70985;SDS011;58645;43.068;25.610;2023-12-20T03:11:11;15.63;;;9.30;;
70985;SDS011;58645;43.068;25.610;2023-12-20T03:13:37;16.13;;;9.35;;
70985;SDS011;58645;43.068;25.610;2023-12-20T03:16:12;16.73;;;9.25;;
70985;SDS011;58645;43.068;25.610;2023-12-20T03:18:39;14.15;;;8.30;;
70985;SDS011;58645;43.068;25.610;2023-12-20T03:21:05;15.98;;;9.85;;
70985;SDS011;58645;43.068;25.610;2023-12-20T03:23:31;16.35;;;9.68;;
70985;SDS011;58645;43.068;25.610;2023-12-20T03:25:58;19.65;;;9.55;;
70985;SDS011;58645;43.068;25.610;2023-12-20T03:28:25;17.42;;;9.15;;
70985;SDS011;58645;43.068;25.610;2023-12-20T03:30:52;18.45;;;9.65;;
70985;SDS011;58645;43.068;25.610;2023-12-20T03:33:17;17.60;;;10.32;;
70985;SDS011;58645;43.068;25.610;2023-12-20T03:35:43;22.95;;;10.98;;
70985;SDS011;58645;43.068;25.610;2023-12-20T03:38:09;24.58;;;13.52;;
70985;SDS011;58645;43.068;25.610;2023-12-20T03:40:35;22.63;;;13.07;;
70985;SDS011;58645;43.068;25.610;2023-12-20T03:43:01;27.17;;;14.50;;
70985;SDS011;58645;43.068;25.610;2023-12-20T03:45:26;29.27;;;14.70;;
70985;SDS011;58645;43.068;25.610;2023-12-20T03:47:52;29.92;;;15.45;;
70985;SDS011;58645;43.068;25.610;2023-12-20T03:50:25;31.38;;;16.80;;
70985;SDS011;58645;43.068;25.610;2023-12-20T03:52:51;27.20;;;14.73;;
70985;SDS011;58645;43.068;25.610;2023-12-20T03:55:17;24.83;;;13.38;;
70985;SDS011;58645;43.068;25.610;2023-12-20T03:57:43;26.90;;;14.35;;
70985;SDS011;58645;43.068;25.610;2023-12-20T04:00:09;27.48;;;13.75;;
70985;SDS011;58645;43.068;25.610;2023-12-20T04:02:39;26.58;;;13.90;;
70985;SDS011;58645;43.068;25.610;2023-12-20T04:05:05;27.83;;;14.23;;
70985;SDS011;58645;43.068;25.610;2023-12-20T04:09:58;31.35;;;15.15;;
70985;SDS011;58645;43.068;25.610;2023-12-20T04:12:24;26.10;;;14.07;;
70985;SDS011;58645;43.068;25.610;2023-12-20T04:14:51;25.00;;;14.02;;
70985;SDS011;58645;43.068;25.610;2023-12-20T04:17:17;22.70;;;12.15;;
70985;SDS011;58645;43.068;25.610;2023-12-20T04:19:43;25.67;;;14.13;;
70985;SDS011;58645;43.068;25.610;2023-12-20T04:22:08;25.13;;;13.07;;
70985;SDS011;58645;43.068;25.610;2023-12-20T04:24:34;25.95;;;13.45;;
70985;SDS011;58645;43.068;25.610;2023-12-20T04:27:00;22.92;;;13.20;;
70985;SDS011;58645;43.068;25.610;2023-12-20T04:29:26;23.52;;;13.00;;
70985;SDS011;58645;43.068;25.610;2023-12-20T04:31:52;26.58;;;14.75;;
70985;SDS011;58645;43.068;25.610;2023-12-20T04:34:18;23.38;;;12.55;;
70985;SDS011;58645;43.068;25.610;2023-12-20T04:36:43;21.50;;;13.10;;
70985;SDS011;58645;43.068;25.610;2023-12-20T04:39:11;26.00;;;13.68;;
70985;SDS011;58645;43.068;25.610;2023-12-20T04:41:38;22.88;;;12.90;;
70985;SDS011;58645;43.068;25.610;2023-12-20T04:44:04;38.20;;;20.98;;
70985;SDS011;58645;43.068;25.610;2023-12-20T04:46:31;25.27;;;14.20;;
70985;SDS011;58645;43.068;25.610;2023-12-20T04:48:57;42.97;;;21.48;;
70985;SDS011;58645;43.068;25.610;2023-12-20T04:51:22;29.13;;;16.00;;
70985;SDS011;58645;43.068;25.610;2023-12-20T04:53:48;32.72;;;16.23;;
70985;SDS011;58645;43.068;25.610;2023-12-20T04:56:14;25.83;;;13.20;;
70985;SDS011;58645;43.068;25.610;2023-12-20T04:58:40;20.98;;;11.57;;
70985;SDS011;58645;43.068;25.610;2023-12-20T05:01:06;19.38;;;10.68;;
70985;SDS011;58645;43.068;25.610;2023-12-20T05:03:32;20.25;;;11.52;;
70985;SDS011;58645;43.068;25.610;2023-12-20T05:05:58;23.95;;;12.98;;
70985;SDS011;58645;43.068;25.610;2023-12-20T05:08:24;20.30;;;12.07;;
70985;SDS011;58645;43.068;25.610;2023-12-20T05:10:50;21.63;;;12.35;;
70985;SDS011;58645;43.068;25.610;2023-12-20T05:13:19;16.33;;;10.20;;
70985;SDS011;58645;43.068;25.610;2023-12-20T05:15:45;17.23;;;10.18;;
70985;SDS011;58645;43.068;25.610;2023-12-20T05:18:11;16.08;;;10.30;;
70985;SDS011;58645;43.068;25.610;2023-12-20T05:20:38;16.23;;;9.38;;
70985;SDS011;58645;43.068;25.610;2023-12-20T05:23:04;18.08;;;9.93;;
70985;SDS011;58645;43.068;25.610;2023-12-20T05:25:30;19.63;;;10.18;;
70985;SDS011;58645;43.068;25.610;2023-12-20T05:27:55;17.50;;;10.30;;
70985;SDS011;58645;43.068;25.610;2023-12-20T05:30:21;14.18;;;8.68;;
70985;SDS011;58645;43.068;25.610;2023-12-20T05:32:47;14.95;;;7.78;;
70985;SDS011;58645;43.068;25.610;2023-12-20T05:35:13;11.95;;;7.45;;
70985;SDS011;58645;43.068;25.610;2023-12-20T05:37:40;22.58;;;11.52;;
70985;SDS011;58645;43.068;25.610;2023-12-20T05:40:06;21.95;;;11.73;;
70985;SDS011;58645;43.068;25.610;2023-12-20T05:42:35;27.80;;;15.85;;
70985;SDS011;58645;43.068;25.610;2023-12-20T05:45:06;41.05;;;18.30;;
70985;SDS011;58645;43.068;25.610;2023-12-20T05:47:32;31.83;;;14.32;;
70985;SDS011;58645;43.068;25.610;2023-12-20T05:49:57;20.38;;;11.43;;
70985;SDS011;58645;43.068;25.610;2023-12-20T05:52:24;13.85;;;7.78;;
70985;SDS011;58645;43.068;25.610;2023-12-20T05:54:50;16.85;;;10.23;;
70985;SDS011;58645;43.068;25.610;2023-12-20T05:57:15;20.90;;;11.70;;
70985;SDS011;58645;43.068;25.610;2023-12-20T05:59:41;24.20;;;12.43;;
70985;SDS011;58645;43.068;25.610;2023-12-20T06:02:07;25.30;;;12.18;;
70985;SDS011;58645;43.068;25.610;2023-12-20T06:04:33;25.55;;;13.57;;
70985;SDS011;58645;43.068;25.610;2023-12-20T06:06:58;25.25;;;12.73;;
70985;SDS011;58645;43.068;25.610;2023-12-20T06:09:26;23.88;;;12.57;;
70985;SDS011;58645;43.068;25.610;2023-12-20T06:11:52;25.23;;;14.18;;
70985;SDS011;58645;43.068;25.610;2023-12-20T06:14:18;20.02;;;12.82;;
70985;SDS011;58645;43.068;25.610;2023-12-20T06:16:45;19.27;;;13.05;;
70985;SDS011;58645;43.068;25.610;2023-12-20T06:19:11;20.05;;;12.48;;
70985;SDS011;58645;43.068;25.610;2023-12-20T06:21:37;20.92;;;12.90;;
70985;SDS011;58645;43.068;25.610;2023-12-20T06:24:03;22.90;;;12.57;;
70985;SDS011;58645;43.068;25.610;2023-12-20T06:26:29;16.48;;;10.27;;
70985;SDS011;58645;43.068;25.610;2023-12-20T06:28:54;19.00;;;11.45;;
70985;SDS011;58645;43.068;25.610;2023-12-20T06:31:20;19.48;;;12.43;;
70985;SDS011;58645;43.068;25.610;2023-12-20T06:33:46;18.65;;;11.45;;
70985;SDS011;58645;43.068;25.610;2023-12-20T06:36:12;14.32;;;9.27;;
70985;SDS011;58645;43.068;25.610;2023-12-20T06:38:38;16.83;;;9.02;;
70985;SDS011;58645;43.068;25.610;2023-12-20T06:41:07;18.60;;;9.95;;
70985;SDS011;58645;43.068;25.610;2023-12-20T06:43:33;19.77;;;10.85;;
70985;SDS011;58645;43.068;25.610;2023-12-20T06:46:00;20.15;;;13.00;;
70985;SDS011;58645;43.068;25.610;2023-12-20T06:48:26;20.63;;;12.60;;
70985;SDS011;58645;43.068;25.610;2023-12-20T06:50:52;11.23;;;7.75;;
70985;SDS011;58645;43.068;25.610;2023-12-20T06:53:18;13.27;;;8.80;;
70985;SDS011;58645;43.068;25.610;2023-12-20T06:55:44;13.40;;;8.95;;
70985;SDS011;58645;43.068;25.610;2023-12-20T06:58:11;16.75;;;10.10;;
70985;SDS011;58645;43.068;25.610;2023-12-20T07:00:37;16.98;;;10.68;;
70985;SDS011;58645;43.068;25.610;2023-12-20T07:03:03;15.35;;;11.02;;
70985;SDS011;58645;43.068;25.610;2023-12-20T07:05:29;16.30;;;10.57;;
70985;SDS011;58645;43.068;25.610;2023-12-20T07:07:54;16.33;;;10.48;;
70985;SDS011;58645;43.068;25.610;2023-12-20T07:10:20;15.25;;;10.50;;
70985;SDS011;58645;43.068;25.610;2023-12-20T07:12:46;14.23;;;8.55;;
70985;SDS011;58645;43.068;25.610;2023-12-20T07:15:13;11.85;;;8.20;;
70985;SDS011;58645;43.068;25.610;2023-12-20T07:17:42;12.82;;;7.72;;
70985;SDS011;58645;43.068;25.610;2023-12-20T07:20:09;11.27;;;7.80;;
70985;SDS011;58645;43.068;25.610;2023-12-20T07:22:36;11.85;;;7.63;;
70985;SDS011;58645;43.068;25.610;2023-12-20T07:25:02;11.57;;;7.35;;
70985;SDS011;58645;43.068;25.610;2023-12-20T07:27:28;11.52;;;7.50;;
70985;SDS011;58645;43.068;25.610;2023-12-20T07:29:54;9.90;;;7.15;;
70985;SDS011;58645;43.068;25.610;2023-12-20T07:32:20;11.20;;;7.00;;
70985;SDS011;58645;43.068;25.610;2023-12-20T07:34:46;11.65;;;6.13;;
70985;SDS011;58645;43.068;25.610;2023-12-20T07:37:13;10.13;;;6.78;;
70985;SDS011;58645;43.068;25.610;2023-12-20T07:39:39;12.02;;;7.20;;
70985;SDS011;58645;43.068;25.610;2023-12-20T07:42:06;14.05;;;7.75;;
70985;SDS011;58645;43.068;25.610;2023-12-20T07:44:32;14.75;;;8.25;;
70985;SDS011;58645;43.068;25.610;2023-12-20T07:46:58;12.40;;;6.95;;
70985;SDS011;58645;43.068;25.610;2023-12-20T07:49:24;13.27;;;8.52;;
70985;SDS011;58645;43.068;25.610;2023-12-20T07:51:50;12.10;;;6.28;;
70985;SDS011;58645;43.068;25.610;2023-12-20T07:54:16;12.68;;;7.68;;
70985;SDS011;58645;43.068;25.610;2023-12-20T07:56:42;11.32;;;7.75;;
70985;SDS011;58645;43.068;25.610;2023-12-20T07:59:14;14.60;;;8.68;;
70985;SDS011;58645;43.068;25.610;2023-12-20T08:01:43;18.42;;;10.80;;
70985;SDS011;58645;43.068;25.610;2023-12-20T08:04:09;16.63;;;11.27;;
70985;SDS011;58645;43.068;25.610;2023-12-20T08:06:35;21.13;;;12.45;;
70985;SDS011;58645;43.068;25.610;2023-12-20T08:09:03;18.15;;;12.90;;
70985;SDS011;58645;43.068;25.610;2023-12-20T08:11:29;20.73;;;12.25;;
70985;SDS011;58645;43.068;25.610;2023-12-20T08:13:55;16.52;;;10.15;;
70985;SDS011;58645;43.068;25.610;2023-12-20T08:16:20;20.13;;;12.52;;
70985;SDS011;58645;43.068;25.610;2023-12-20T08:18:47;15.63;;;9.93;;
70985;SDS011;58645;43.068;25.610;2023-12-20T08:21:13;15.68;;;10.23;;
70985;SDS011;58645;43.068;25.610;2023-12-20T08:23:41;17.13;;;10.20;;
70985;SDS011;58645;43.068;25.610;2023-12-20T08:26:07;19.35;;;12.48;;
70985;SDS011;58645;43.068;25.610;2023-12-20T08:28:34;17.65;;;11.93;;
70985;SDS011;58645;43.068;25.610;2023-12-20T08:31:02;17.58;;;13.40;;
70985;SDS011;58645;43.068;25.610;2023-12-20T08:33:31;16.48;;;12.57;;
70985;SDS011;58645;43.068;25.610;2023-12-20T08:36:06;20.08;;;12.98;;
70985;SDS011;58645;43.068;25.610;2023-12-20T08:39:29;20.30;;;14.52;;
70985;SDS011;58645;43.068;25.610;2023-12-20T08:41:55;20.83;;;12.98;;
70985;SDS011;58645;43.068;25.610;2023-12-20T08:47:18;20.15;;;12.70;;
70985;SDS011;58645;43.068;25.610;2023-12-20T08:49:45;17.23;;;12.43;;
70985;SDS011;58645;43.068;25.610;2023-12-20T08:54:40;18.48;;;12.48;;
70985;SDS011;58645;43.068;25.610;2023-12-20T08:57:06;18.35;;;12.45;;
70985;SDS011;58645;43.068;25.610;2023-12-20T08:59:32;25.15;;;15.20;;
70985;SDS011;58645;43.068;25.610;2023-12-20T09:01:58;21.65;;;16.20;;
70985;SDS011;58645;43.068;25.610;2023-12-20T09:04:24;19.92;;;15.05;;
70985;SDS011;58645;43.068;25.610;2023-12-20T09:06:53;20.33;;;14.88;;
70985;SDS011;58645;43.068;25.610;2023-12-20T09:09:18;21.73;;;17.90;;
70985;SDS011;58645;43.068;25.610;2023-12-20T09:11:44;25.13;;;17.02;;
70985;SDS011;58645;43.068;25.610;2023-12-20T09:17:38;25.35;;;17.50;;
70985;SDS011;58645;43.068;25.610;2023-12-20T09:20:06;23.02;;;17.85;;
70985;SDS011;58645;43.068;25.610;2023-12-20T09:22:35;26.48;;;17.42;;
70985;SDS011;58645;43.068;25.610;2023-12-20T09:25:08;22.17;;;17.10;;
70985;SDS011;58645;43.068;25.610;2023-12-20T09:27:41;29.35;;;18.80;;
70985;SDS011;58645;43.068;25.610;2023-12-20T09:30:07;25.50;;;19.73;;
70985;SDS011;58645;43.068;25.610;2023-12-20T09:32:33;22.60;;;18.33;;
70985;SDS011;58645;43.068;25.610;2023-12-20T09:35:02;25.00;;;18.52;;
70985;SDS011;58645;43.068;25.610;2023-12-20T09:37:33;24.95;;;17.65;;
70985;SDS011;58645;43.068;25.610;2023-12-20T09:42:25;23.67;;;16.02;;
70985;SDS011;58645;43.068;25.610;2023-12-20T09:45:03;27.85;;;20.20;;
70985;SDS011;58645;43.068;25.610;2023-12-20T09:47:33;28.00;;;20.77;;
70985;SDS011;58645;43.068;25.610;2023-12-20T09:52:24;34.20;;;23.70;;
70985;SDS011;58645;43.068;25.610;2023-12-20T09:54:53;27.23;;;18.92;;
70985;SDS011;58645;43.068;25.610;2023-12-20T09:57:32;29.52;;;21.45;;
70985;SDS011;58645;43.068;25.610;2023-12-20T09:59:58;26.27;;;18.70;;
70985;SDS011;58645;43.068;25.610;2023-12-20T10:02:24;28.50;;;18.58;;
70985;SDS011;58645;43.068;25.610;2023-12-20T10:04:52;29.08;;;17.83;;
70985;SDS011;58645;43.068;25.610;2023-12-20T10:07:19;25.65;;;19.50;;
70985;SDS011;58645;43.068;25.610;2023-12-20T10:09:46;25.35;;;20.35;;
70985;SDS011;58645;43.068;25.610;2023-12-20T10:12:16;30.88;;;21.70;;
70985;SDS011;58645;43.068;25.610;2023-12-20T10:14:50;29.40;;;22.95;;
70985;SDS011;58645;43.068;25.610;2023-12-20T10:17:16;31.52;;;24.55;;
70985;SDS011;58645;43.068;25.610;2023-12-20T10:19:42;34.83;;;26.67;;
70985;SDS011;58645;43.068;25.610;2023-12-20T10:22:08;33.78;;;23.83;;
70985;SDS011;58645;43.068;25.610;2023-12-20T10:24:35;32.85;;;25.73;;
70985;SDS011;58645;43.068;25.610;2023-12-20T10:27:01;28.52;;;23.77;;
70985;SDS011;58645;43.068;25.610;2023-12-20T10:29:37;26.38;;;21.75;;
70985;SDS011;58645;43.068;25.610;2023-12-20T10:34:53;27.10;;;20.27;;
70985;SDS011;58645;43.068;25.610;2023-12-20T10:37:19;23.13;;;19.35;;
70985;SDS011;58645;43.068;25.610;2023-12-20T10:39:52;24.20;;;18.77;;
70985;SDS011;58645;43.068;25.610;2023-12-20T10:42:22;21.10;;;17.38;;
70985;SDS011;58645;43.068;25.610;2023-12-20T10:44:51;20.02;;;14.80;;
70985;SDS011;58645;43.068;25.610;2023-12-20T10:47:19;19.20;;;15.88;;
70985;SDS011;58645;43.068;25.610;2023-12-20T10:49:45;17.70;;;13.50;;
70985;SDS011;58645;43.068;25.610;2023-12-20T10:52:12;16.92;;;14.00;;
70985;SDS011;58645;43.068;25.610;2023-12-20T10:54:41;17.55;;;13.32;;
70985;SDS011;58645;43.068;25.610;2023-12-20T10:57:07;18.45;;;15.50;;
70985;SDS011;58645;43.068;25.610;2023-12-20T10:59:34;21.70;;;16.85;;
70985;SDS011;58645;43.068;25.610;2023-12-20T11:02:05;22.30;;;17.20;;
70985;SDS011;58645;43.068;25.610;2023-12-20T11:04:44;21.58;;;18.30;;
70985;SDS011;58645;43.068;25.610;2023-12-20T11:07:30;21.75;;;18.70;;
70985;SDS011;58645;43.068;25.610;2023-12-20T11:10:23;22.50;;;19.73;;
70985;SDS011;58645;43.068;25.610;2023-12-20T11:13:00;23.65;;;19.42;;
70985;SDS011;58645;43.068;25.610;2023-12-20T11:15:30;32.78;;;24.23;;
70985;SDS011;58645;43.068;25.610;2023-12-20T11:17:56;28.60;;;24.23;;
70985;SDS011;58645;43.068;25.610;2023-12-20T11:20:24;32.25;;;25.42;;
70985;SDS011;58645;43.068;25.610;2023-12-20T11:23:01;33.58;;;27.95;;
70985;SDS011;58645;43.068;25.610;2023-12-20T11:25:28;36.90;;;28.40;;
70985;SDS011;58645;43.068;25.610;2023-12-20T11:28:07;30.85;;;22.23;;
70985;SDS011;58645;43.068;25.610;2023-12-20T11:30:46;34.83;;;24.95;;
70985;SDS011;58645;43.068;25.610;2023-12-20T11:33:13;41.65;;;26.25;;
70985;SDS011;58645;43.068;25.610;2023-12-20T11:35:40;32.03;;;22.02;;
70985;SDS011;58645;43.068;25.610;2023-12-20T11:38:10;35.10;;;20.90;;
70985;SDS011;58645;43.068;25.610;2023-12-20T11:40:36;26.30;;;18.55;;
70985;SDS011;58645;43.068;25.610;2023-12-20T11:43:02;30.63;;;21.00;;
70985;SDS011;58645;43.068;25.610;2023-12-20T11:45:33;27.42;;;18.80;;
70985;SDS011;58645;43.068;25.610;2023-12-20T11:48:00;25.48;;;16.38;;
70985;SDS011;58645;43.068;25.610;2023-12-20T11:50:31;24.50;;;17.35;;
70985;SDS011;58645;43.068;25.610;2023-12-20T11:53:00;24.77;;;17.17;;
70985;SDS011;58645;43.068;25.610;2023-12-20T11:55:25;23.50;;;18.75;;
70985;SDS011;58645;43.068;25.610;2023-12-20T11:57:54;29.23;;;18.38;;
70985;SDS011;58645;43.068;25.610;2023-12-20T12:00:21;31.10;;;19.60;;
70985;SDS011;58645;43.068;25.610;2023-12-20T12:05:23;26.65;;;16.35;;
70985;SDS011;58645;43.068;25.610;2023-12-20T12:07:48;24.83;;;14.75;;
70985;SDS011;58645;43.068;25.610;2023-12-20T12:10:14;29.27;;;17.27;;
70985;SDS011;58645;43.068;25.610;2023-12-20T12:12:40;23.80;;;16.35;;
70985;SDS011;58645;43.068;25.610;2023-12-20T12:17:32;28.83;;;15.57;;
70985;SDS011;58645;43.068;25.610;2023-12-20T12:20:02;37.58;;;18.63;;
70985;SDS011;58645;43.068;25.610;2023-12-20T12:22:29;32.70;;;19.00;;
70985;SDS011;58645;43.068;25.610;2023-12-20T12:24:58;33.08;;;18.08;;
70985;SDS011;58645;43.068;25.610;2023-12-20T12:27:26;29.65;;;21.15;;
70985;SDS011;58645;43.068;25.610;2023-12-20T12:30:03;33.78;;;18.55;;
70985;SDS011;58645;43.068;25.610;2023-12-20T12:32:32;23.65;;;13.82;;
70985;SDS011;58645;43.068;25.610;2023-12-20T12:34:58;17.80;;;11.60;;
70985;SDS011;58645;43.068;25.610;2023-12-20T12:37:24;22.10;;;12.00;;
70985;SDS011;58645;43.068;25.610;2023-12-20T12:39:52;17.33;;;12.38;;
70985;SDS011;58645;43.068;25.610;2023-12-20T12:42:19;20.83;;;11.95;;
70985;SDS011;58645;43.068;25.610;2023-12-20T12:44:45;24.27;;;13.05;;
70985;SDS011;58645;43.068;25.610;2023-12-20T12:47:11;19.95;;;11.20;;
70985;SDS011;58645;43.068;25.610;2023-12-20T12:49:37;25.35;;;13.98;;
70985;SDS011;58645;43.068;25.610;2023-12-20T12:52:04;24.98;;;14.88;;
70985;SDS011;58645;43.068;25.610;2023-12-20T12:54:30;25.15;;;12.98;;
70985;SDS011;58645;43.068;25.610;2023-12-20T12:56:56;24.30;;;13.43;;
70985;SDS011;58645;43.068;25.610;2023-12-20T12:59:23;22.10;;;13.27;;
70985;SDS011;58645;43.068;25.610;2023-12-20T13:01:49;18.88;;;12.88;;
70985;SDS011;58645;43.068;25.610;2023-12-20T13:04:14;24.13;;;12.95;;
70985;SDS011;58645;43.068;25.610;2023-12-20T13:06:41;22.50;;;13.23;;
70985;SDS011;58645;43.068;25.610;2023-12-20T13:09:07;21.60;;;12.90;;
70985;SDS011;58645;43.068;25.610;2023-12-20T13:11:34;28.33;;;14.13;;
70985;SDS011;58645;43.068;25.610;2023-12-20T13:14:00;21.48;;;12.00;;
70985;SDS011;58645;43.068;25.610;2023-12-20T13:16:26;22.30;;;11.90;;
70985;SDS011;58645;43.068;25.610;2023-12-20T13:18:52;30.48;;;13.30;;
70985;SDS011;58645;43.068;25.610;2023-12-20T13:21:18;23.05;;;14.18;;
70985;SDS011;58645;43.068;25.610;2023-12-20T13:23:43;24.83;;;12.52;;
70985;SDS011;58645;43.068;25.610;2023-12-20T13:26:09;23.38;;;14.00;;
70985;SDS011;58645;43.068;25.610;2023-12-20T13:28:35;23.35;;;14.27;;
70985;SDS011;58645;43.068;25.610;2023-12-20T13:31:01;25.77;;;16.83;;
70985;SDS011;58645;43.068;25.610;2023-12-20T13:33:27;34.05;;;17.60;;
70985;SDS011;58645;43.068;25.610;2023-12-20T13:35:52;36.60;;;18.33;;
70985;SDS011;58645;43.068;25.610;2023-12-20T13:38:18;38.70;;;18.73;;
70985;SDS011;58645;43.068;25.610;2023-12-20T13:40:44;35.67;;;17.02;;
70985;SDS011;58645;43.068;25.610;2023-12-20T13:43:10;25.45;;;14.75;;
70985;SDS011;58645;43.068;25.610;2023-12-20T13:45:37;32.00;;;14.60;;
70985;SDS011;58645;43.068;25.610;2023-12-20T13:48:03;23.23;;;13.43;;
70985;SDS011;58645;43.068;25.610;2023-12-20T13:50:29;24.52;;;13.20;;
70985;SDS011;58645;43.068;25.610;2023-12-20T13:52:55;24.95;;;12.70;;
70985;SDS011;58645;43.068;25.610;2023-12-20T13:55:22;30.80;;;13.20;;
70985;SDS011;58645;43.068;25.610;2023-12-20T13:57:50;25.45;;;13.52;;
70985;SDS011;58645;43.068;25.610;2023-12-20T14:00:16;33.10;;;14.32;;
70985;SDS011;58645;43.068;25.610;2023-12-20T14:02:42;31.27;;;14.30;;
70985;SDS011;58645;43.068;25.610;2023-12-20T14:05:08;27.85;;;14.50;;
70985;SDS011;58645;43.068;25.610;2023-12-20T14:07:35;34.72;;;15.52;;
70985;SDS011;58645;43.068;25.610;2023-12-20T14:10:01;36.53;;;16.02;;
70985;SDS011;58645;43.068;25.610;2023-12-20T14:12:28;38.47;;;15.82;;
70985;SDS011;58645;43.068;25.610;2023-12-20T14:14:54;29.48;;;17.05;;
70985;SDS011;58645;43.068;25.610;2023-12-20T14:17:21;29.45;;;14.68;;
70985;SDS011;58645;43.068;25.610;2023-12-20T14:19:47;24.67;;;12.75;;
70985;SDS011;58645;43.068;25.610;2023-12-20T14:22:13;16.38;;;8.77;;
70985;SDS011;58645;43.068;25.610;2023-12-20T14:24:42;13.23;;;7.57;;
70985;SDS011;58645;43.068;25.610;2023-12-20T14:27:08;14.32;;;8.25;;
70985;SDS011;58645;43.068;25.610;2023-12-20T14:29:34;13.50;;;7.55;;
70985;SDS011;58645;43.068;25.610;2023-12-20T14:32:00;12.00;;;7.15;;
70985;SDS011;58645;43.068;25.610;2023-12-20T14:34:28;12.80;;;6.88;;
70985;SDS011;58645;43.068;25.610;2023-12-20T14:36:54;10.57;;;6.68;;